sensor_id;sensor_type;location;lat;lon;timestamp;P1;durP1;ratioP1;P2;durP2;ratioP2
9860;SDS011;4969;52.304;4.968;2022-12-20T00:01:36;7.00;;;6.30;;
9860;SDS011;4969;52.304;4.968;2022-12-20T00:04:03;8.25;;;6.10;;
9860;SDS011;4969;52.304;4.968;2022-12-20T00:06:30;10.65;;;9.07;;
9860;SDS011;4969;52.304;4.968;2022-12-20T00:09:00;10.52;;;9.43;;
9860;SDS011;4969;52.304;4.968;2022-12-20T00:11:28;18.17;;;13.80;;
9860;SDS011;4969;52.304;4.968;2022-12-20T00:13:55;17.20;;;14.50;;
9860;SDS011;4969;52.304;4.968;2022-12-20T00:16:22;24.50;;;19.20;;
9860;SDS011;4969;52.304;4.968;2022-12-20T00:18:53;30.52;;;23.65;;
9860;SDS011;4969;52.304;4.968;2022-12-20T00:21:21;29.27;;;21.50;;
9860;SDS011;4969;52.304;4.968;2022-12-20T00:23:48;43.13;;;35.50;;
9860;SDS011;4969;52.304;4.968;2022-12-20T00:26:17;29.05;;;24.23;;
9860;SDS011;4969;52.304;4.968;2022-12-20T00:28:45;34.78;;;26.10;;
9860;SDS011;4969;52.304;4.968;2022-12-20T00:31:13;56.83;;;46.53;;
9860;SDS011;4969;52.304;4.968;2022-12-20T00:33:44;47.40;;;37.67;;
9860;SDS011;4969;52.304;4.968;2022-12-20T00:36:13;51.30;;;40.85;;
9860;SDS011;4969;52.304;4.968;2022-12-20T00:38:43;56.08;;;43.17;;
9860;SDS011;4969;52.304;4.968;2022-12-20T00:41:10;68.97;;;55.17;;
9860;SDS011;4969;52.304;4.968;2022-12-20T00:43:39;64.13;;;50.28;;
9860;SDS011;4969;52.304;4.968;2022-12-20T00:46:06;63.20;;;50.47;;
9860;SDS011;4969;52.304;4.968;2022-12-20T00:48:34;67.80;;;54.17;;
9860;SDS011;4969;52.304;4.968;2022-12-20T00:51:02;61.83;;;48.97;;
9860;SDS011;4969;52.304;4.968;2022-12-20T00:53:31;81.22;;;64.15;;
9860;SDS011;4969;52.304;4.968;2022-12-20T00:55:58;83.55;;;66.53;;
9860;SDS011;4969;52.304;4.968;2022-12-20T00:58:25;49.72;;;41.03;;
9860;SDS011;4969;52.304;4.968;2022-12-20T01:00:52;30.42;;;24.10;;
9860;SDS011;4969;52.304;4.968;2022-12-20T01:03:19;59.90;;;48.22;;
9860;SDS011;4969;52.304;4.968;2022-12-20T01:05:49;56.95;;;47.90;;
9860;SDS011;4969;52.304;4.968;2022-12-20T01:08:17;85.82;;;70.22;;
9860;SDS011;4969;52.304;4.968;2022-12-20T01:10:45;102.55;;;75.90;;
9860;SDS011;4969;52.304;4.968;2022-12-20T01:13:12;94.28;;;68.90;;
9860;SDS011;4969;52.304;4.968;2022-12-20T01:15:39;84.28;;;67.50;;
9860;SDS011;4969;52.304;4.968;2022-12-20T01:18:05;70.00;;;51.92;;
9860;SDS011;4969;52.304;4.968;2022-12-20T01:20:32;112.97;;;92.90;;
9860;SDS011;4969;52.304;4.968;2022-12-20T01:22:59;74.60;;;59.60;;
9860;SDS011;4969;52.304;4.968;2022-12-20T01:25:25;79.45;;;61.10;;
9860;SDS011;4969;52.304;4.968;2022-12-20T01:27:53;25.13;;;21.13;;
9860;SDS011;4969;52.304;4.968;2022-12-20T01:30:20;55.20;;;44.60;;
9860;SDS011;4969;52.304;4.968;2022-12-20T01:32:46;83.95;;;68.57;;
9860;SDS011;4969;52.304;4.968;2022-12-20T01:35:13;85.03;;;69.35;;
9860;SDS011;4969;52.304;4.968;2022-12-20T01:37:39;39.67;;;31.27;;
9860;SDS011;4969;52.304;4.968;2022-12-20T01:40:07;37.42;;;31.35;;
9860;SDS011;4969;52.304;4.968;2022-12-20T01:42:35;61.33;;;49.15;;
9860;SDS011;4969;52.304;4.968;2022-12-20T01:45:03;77.38;;;61.13;;
9860;SDS011;4969;52.304;4.968;2022-12-20T01:47:33;53.38;;;42.58;;
9860;SDS011;4969;52.304;4.968;2022-12-20T01:50:02;73.25;;;57.25;;
9860;SDS011;4969;52.304;4.968;2022-12-20T01:52:32;73.90;;;52.65;;
9860;SDS011;4969;52.304;4.968;2022-12-20T01:55:02;59.15;;;48.20;;
9860;SDS011;4969;52.304;4.968;2022-12-20T01:57:35;64.15;;;52.13;;
9860;SDS011;4969;52.304;4.968;2022-12-20T02:00:09;33.95;;;28.38;;
9860;SDS011;4969;52.304;4.968;2022-12-20T02:02:36;66.13;;;51.65;;
9860;SDS011;4969;52.304;4.968;2022-12-20T02:05:04;60.67;;;47.42;;
9860;SDS011;4969;52.304;4.968;2022-12-20T02:07:31;51.90;;;41.05;;
9860;SDS011;4969;52.304;4.968;2022-12-20T02:10:00;38.85;;;30.88;;
9860;SDS011;4969;52.304;4.968;2022-12-20T02:12:29;45.53;;;36.40;;
9860;SDS011;4969;52.304;4.968;2022-12-20T02:15:02;41.42;;;33.28;;
9860;SDS011;4969;52.304;4.968;2022-12-20T02:17:43;64.50;;;52.88;;
9860;SDS011;4969;52.304;4.968;2022-12-20T02:20:29;32.80;;;25.75;;
9860;SDS011;4969;52.304;4.968;2022-12-20T02:23:12;47.25;;;38.85;;
9860;SDS011;4969;52.304;4.968;2022-12-20T02:25:52;35.30;;;28.83;;
9860;SDS011;4969;52.304;4.968;2022-12-20T02:28:40;46.55;;;33.63;;
9860;SDS011;4969;52.304;4.968;2022-12-20T02:31:25;50.65;;;40.28;;
9860;SDS011;4969;52.304;4.968;2022-12-20T02:33:54;48.20;;;39.30;;
9860;SDS011;4969;52.304;4.968;2022-12-20T02:36:23;27.65;;;22.15;;
9860;SDS011;4969;52.304;4.968;2022-12-20T02:38:50;28.63;;;24.15;;
9860;SDS011;4969;52.304;4.968;2022-12-20T02:41:18;38.92;;;31.33;;
9860;SDS011;4969;52.304;4.968;2022-12-20T02:43:50;30.63;;;24.05;;
9860;SDS011;4969;52.304;4.968;2022-12-20T02:46:39;39.65;;;32.33;;
9860;SDS011;4969;52.304;4.968;2022-12-20T02:49:07;45.33;;;32.60;;
9860;SDS011;4969;52.304;4.968;2022-12-20T02:51:37;38.58;;;29.20;;
9860;SDS011;4969;52.304;4.968;2022-12-20T02:54:06;14.65;;;12.35;;
9860;SDS011;4969;52.304;4.968;2022-12-20T02:56:34;39.25;;;32.67;;
9860;SDS011;4969;52.304;4.968;2022-12-20T02:59:05;31.05;;;25.38;;
9860;SDS011;4969;52.304;4.968;2022-12-20T03:01:36;18.17;;;15.70;;
9860;SDS011;4969;52.304;4.968;2022-12-20T03:04:07;29.65;;;25.58;;
9860;SDS011;4969;52.304;4.968;2022-12-20T03:06:34;36.75;;;30.60;;
9860;SDS011;4969;52.304;4.968;2022-12-20T03:09:01;35.45;;;29.70;;
9860;SDS011;4969;52.304;4.968;2022-12-20T03:11:28;30.65;;;25.48;;
9860;SDS011;4969;52.304;4.968;2022-12-20T03:13:54;32.85;;;27.38;;
9860;SDS011;4969;52.304;4.968;2022-12-20T03:16:21;31.60;;;27.92;;
9860;SDS011;4969;52.304;4.968;2022-12-20T03:18:47;21.85;;;18.38;;
9860;SDS011;4969;52.304;4.968;2022-12-20T03:21:15;30.00;;;26.33;;
9860;SDS011;4969;52.304;4.968;2022-12-20T03:23:42;30.75;;;23.23;;
9860;SDS011;4969;52.304;4.968;2022-12-20T03:26:08;29.00;;;24.25;;
9860;SDS011;4969;52.304;4.968;2022-12-20T03:28:35;24.00;;;20.08;;
9860;SDS011;4969;52.304;4.968;2022-12-20T03:31:02;20.45;;;17.60;;
9860;SDS011;4969;52.304;4.968;2022-12-20T03:33:28;23.00;;;18.75;;
9860;SDS011;4969;52.304;4.968;2022-12-20T03:35:55;19.30;;;16.77;;
9860;SDS011;4969;52.304;4.968;2022-12-20T03:38:23;25.50;;;18.90;;
9860;SDS011;4969;52.304;4.968;2022-12-20T03:40:49;22.77;;;17.95;;
9860;SDS011;4969;52.304;4.968;2022-12-20T03:43:16;14.98;;;13.32;;
9860;SDS011;4969;52.304;4.968;2022-12-20T03:45:42;23.40;;;19.38;;
9860;SDS011;4969;52.304;4.968;2022-12-20T03:48:09;24.75;;;21.33;;
9860;SDS011;4969;52.304;4.968;2022-12-20T03:50:35;20.50;;;18.10;;
9860;SDS011;4969;52.304;4.968;2022-12-20T03:53:02;13.70;;;12.32;;
9860;SDS011;4969;52.304;4.968;2022-12-20T03:55:30;19.75;;;16.48;;
9860;SDS011;4969;52.304;4.968;2022-12-20T03:57:57;18.98;;;16.27;;
9860;SDS011;4969;52.304;4.968;2022-12-20T04:00:23;9.32;;;7.72;;
9860;SDS011;4969;52.304;4.968;2022-12-20T04:02:50;19.42;;;15.27;;
9860;SDS011;4969;52.304;4.968;2022-12-20T04:05:17;16.45;;;14.70;;
9860;SDS011;4969;52.304;4.968;2022-12-20T04:07:43;10.38;;;9.27;;
9860;SDS011;4969;52.304;4.968;2022-12-20T04:10:10;11.93;;;10.13;;
9860;SDS011;4969;52.304;4.968;2022-12-20T04:12:38;10.75;;;7.53;;
9860;SDS011;4969;52.304;4.968;2022-12-20T04:15:05;18.20;;;15.43;;
9860;SDS011;4969;52.304;4.968;2022-12-20T04:17:33;9.52;;;8.52;;
9860;SDS011;4969;52.304;4.968;2022-12-20T04:19:59;13.13;;;11.73;;
9860;SDS011;4969;52.304;4.968;2022-12-20T04:22:42;14.45;;;12.90;;
9860;SDS011;4969;52.304;4.968;2022-12-20T04:25:09;15.70;;;13.73;;
9860;SDS011;4969;52.304;4.968;2022-12-20T04:27:36;13.20;;;11.48;;
9860;SDS011;4969;52.304;4.968;2022-12-20T04:30:04;14.63;;;12.38;;
9860;SDS011;4969;52.304;4.968;2022-12-20T04:32:32;7.60;;;6.82;;
9860;SDS011;4969;52.304;4.968;2022-12-20T04:34:58;11.20;;;9.65;;
9860;SDS011;4969;52.304;4.968;2022-12-20T04:37:25;7.43;;;6.03;;
9860;SDS011;4969;52.304;4.968;2022-12-20T04:39:51;5.25;;;4.72;;
9860;SDS011;4969;52.304;4.968;2022-12-20T04:42:19;10.88;;;9.35;;
9860;SDS011;4969;52.304;4.968;2022-12-20T04:44:46;13.68;;;10.75;;
9860;SDS011;4969;52.304;4.968;2022-12-20T04:47:13;7.85;;;7.13;;
9860;SDS011;4969;52.304;4.968;2022-12-20T04:49:40;11.23;;;9.20;;
9860;SDS011;4969;52.304;4.968;2022-12-20T04:52:07;11.98;;;10.77;;
9860;SDS011;4969;52.304;4.968;2022-12-20T04:54:47;8.75;;;7.82;;
9860;SDS011;4969;52.304;4.968;2022-12-20T04:57:14;8.70;;;6.43;;
9860;SDS011;4969;52.304;4.968;2022-12-20T04:59:40;7.60;;;6.60;;
9860;SDS011;4969;52.304;4.968;2022-12-20T05:02:07;4.95;;;4.50;;
9860;SDS011;4969;52.304;4.968;2022-12-20T05:04:35;9.05;;;8.02;;
9860;SDS011;4969;52.304;4.968;2022-12-20T05:07:01;9.27;;;7.35;;
9860;SDS011;4969;52.304;4.968;2022-12-20T05:09:28;6.57;;;5.95;;
9860;SDS011;4969;52.304;4.968;2022-12-20T05:11:54;8.38;;;7.47;;
9860;SDS011;4969;52.304;4.968;2022-12-20T05:14:21;6.47;;;5.88;;
9860;SDS011;4969;52.304;4.968;2022-12-20T05:16:48;11.90;;;8.95;;
9860;SDS011;4969;52.304;4.968;2022-12-20T05:19:14;9.15;;;7.07;;
9860;SDS011;4969;52.304;4.968;2022-12-20T05:21:42;9.30;;;5.05;;
9860;SDS011;4969;52.304;4.968;2022-12-20T05:24:26;8.65;;;7.55;;
9860;SDS011;4969;52.304;4.968;2022-12-20T05:27:10;6.15;;;5.47;;
9860;SDS011;4969;52.304;4.968;2022-12-20T05:29:37;8.63;;;7.10;;
9860;SDS011;4969;52.304;4.968;2022-12-20T05:32:03;7.97;;;7.18;;
9860;SDS011;4969;52.304;4.968;2022-12-20T05:34:30;7.53;;;6.72;;
9860;SDS011;4969;52.304;4.968;2022-12-20T05:36:58;6.82;;;5.50;;
9860;SDS011;4969;52.304;4.968;2022-12-20T05:39:24;5.95;;;4.28;;
9860;SDS011;4969;52.304;4.968;2022-12-20T05:41:51;6.50;;;5.90;;
9860;SDS011;4969;52.304;4.968;2022-12-20T05:44:17;6.15;;;5.55;;
9860;SDS011;4969;52.304;4.968;2022-12-20T05:46:46;8.88;;;5.88;;
9860;SDS011;4969;52.304;4.968;2022-12-20T05:49:12;7.90;;;6.95;;
9860;SDS011;4969;52.304;4.968;2022-12-20T05:51:39;7.05;;;6.35;;
9860;SDS011;4969;52.304;4.968;2022-12-20T05:54:07;5.82;;;5.22;;
9860;SDS011;4969;52.304;4.968;2022-12-20T05:56:35;5.95;;;5.45;;
9860;SDS011;4969;52.304;4.968;2022-12-20T05:59:02;4.43;;;4.03;;
9860;SDS011;4969;52.304;4.968;2022-12-20T06:01:29;4.07;;;3.75;;
9860;SDS011;4969;52.304;4.968;2022-12-20T06:03:55;4.20;;;3.83;;
9860;SDS011;4969;52.304;4.968;2022-12-20T06:06:22;3.83;;;3.53;;
9860;SDS011;4969;52.304;4.968;2022-12-20T06:08:48;5.85;;;5.18;;
9860;SDS011;4969;52.304;4.968;2022-12-20T06:11:16;4.90;;;4.43;;
9860;SDS011;4969;52.304;4.968;2022-12-20T06:13:43;4.97;;;4.47;;
9860;SDS011;4969;52.304;4.968;2022-12-20T06:16:09;3.95;;;3.42;;
9860;SDS011;4969;52.304;4.968;2022-12-20T06:18:36;4.20;;;3.90;;
9860;SDS011;4969;52.304;4.968;2022-12-20T06:21:03;5.17;;;4.00;;
9860;SDS011;4969;52.304;4.968;2022-12-20T06:23:29;4.05;;;3.60;;
9860;SDS011;4969;52.304;4.968;2022-12-20T06:25:56;4.10;;;3.60;;
9860;SDS011;4969;52.304;4.968;2022-12-20T06:28:24;4.55;;;4.15;;
9860;SDS011;4969;52.304;4.968;2022-12-20T06:30:51;4.63;;;4.13;;
9860;SDS011;4969;52.304;4.968;2022-12-20T06:33:19;4.38;;;3.97;;
9860;SDS011;4969;52.304;4.968;2022-12-20T06:35:45;4.43;;;4.03;;
9860;SDS011;4969;52.304;4.968;2022-12-20T06:38:12;3.53;;;3.22;;
9860;SDS011;4969;52.304;4.968;2022-12-20T06:40:38;4.22;;;3.83;;
9860;SDS011;4969;52.304;4.968;2022-12-20T06:43:05;3.90;;;3.47;;
9860;SDS011;4969;52.304;4.968;2022-12-20T06:45:33;3.95;;;3.45;;
9860;SDS011;4969;52.304;4.968;2022-12-20T06:47:59;3.78;;;3.40;;
9860;SDS011;4969;52.304;4.968;2022-12-20T06:50:26;4.50;;;4.10;;
9860;SDS011;4969;52.304;4.968;2022-12-20T06:52:53;6.50;;;3.40;;
9860;SDS011;4969;52.304;4.968;2022-12-20T06:55:19;3.15;;;2.95;;
9860;SDS011;4969;52.304;4.968;2022-12-20T06:57:46;5.65;;;4.03;;
9860;SDS011;4969;52.304;4.968;2022-12-20T07:00:13;3.20;;;3.00;;
9860;SDS011;4969;52.304;4.968;2022-12-20T07:02:42;5.65;;;3.20;;
9860;SDS011;4969;52.304;4.968;2022-12-20T07:05:09;3.30;;;3.00;;
9860;SDS011;4969;52.304;4.968;2022-12-20T07:07:36;3.70;;;3.30;;
9860;SDS011;4969;52.304;4.968;2022-12-20T07:10:02;3.65;;;3.00;;
9860;SDS011;4969;52.304;4.968;2022-12-20T07:12:30;4.03;;;2.83;;
9860;SDS011;4969;52.304;4.968;2022-12-20T07:14:57;4.07;;;3.30;;
9860;SDS011;4969;52.304;4.968;2022-12-20T07:17:24;3.40;;;2.67;;
9860;SDS011;4969;52.304;4.968;2022-12-20T07:19:52;2.75;;;2.50;;
9860;SDS011;4969;52.304;4.968;2022-12-20T07:22:18;2.70;;;2.50;;
9860;SDS011;4969;52.304;4.968;2022-12-20T07:24:45;3.10;;;2.80;;
9860;SDS011;4969;52.304;4.968;2022-12-20T07:27:11;4.63;;;3.10;;
9860;SDS011;4969;52.304;4.968;2022-12-20T07:29:38;2.92;;;2.70;;
9860;SDS011;4969;52.304;4.968;2022-12-20T07:32:06;3.35;;;2.75;;
9860;SDS011;4969;52.304;4.968;2022-12-20T07:34:35;5.03;;;2.70;;
9860;SDS011;4969;52.304;4.968;2022-12-20T07:37:03;3.63;;;3.03;;
9860;SDS011;4969;52.304;4.968;2022-12-20T07:39:29;3.00;;;2.80;;
9860;SDS011;4969;52.304;4.968;2022-12-20T07:41:56;4.60;;;2.60;;
9860;SDS011;4969;52.304;4.968;2022-12-20T07:44:23;2.80;;;2.60;;
9860;SDS011;4969;52.304;4.968;2022-12-20T07:46:49;2.50;;;2.00;;
9860;SDS011;4969;52.304;4.968;2022-12-20T07:49:16;3.15;;;2.95;;
9860;SDS011;4969;52.304;4.968;2022-12-20T07:51:43;3.50;;;2.40;;
9860;SDS011;4969;52.304;4.968;2022-12-20T07:54:15;2.70;;;2.50;;
9860;SDS011;4969;52.304;4.968;2022-12-20T07:56:46;4.18;;;2.72;;
9860;SDS011;4969;52.304;4.968;2022-12-20T07:59:15;2.80;;;2.60;;
9860;SDS011;4969;52.304;4.968;2022-12-20T08:01:44;2.77;;;2.57;;
9860;SDS011;4969;52.304;4.968;2022-12-20T08:04:15;3.33;;;2.60;;
9860;SDS011;4969;52.304;4.968;2022-12-20T08:06:45;3.03;;;2.28;;
9860;SDS011;4969;52.304;4.968;2022-12-20T08:09:12;2.72;;;2.30;;
9860;SDS011;4969;52.304;4.968;2022-12-20T08:11:42;4.13;;;2.70;;
9860;SDS011;4969;52.304;4.968;2022-12-20T08:14:11;2.83;;;2.40;;
9860;SDS011;4969;52.304;4.968;2022-12-20T08:16:38;4.53;;;2.42;;
9860;SDS011;4969;52.304;4.968;2022-12-20T08:19:05;2.72;;;2.53;;
9860;SDS011;4969;52.304;4.968;2022-12-20T08:21:32;3.28;;;2.50;;
9860;SDS011;4969;52.304;4.968;2022-12-20T08:23:58;5.55;;;2.20;;
9860;SDS011;4969;52.304;4.968;2022-12-20T08:26:26;3.53;;;2.40;;
9860;SDS011;4969;52.304;4.968;2022-12-20T08:28:53;4.40;;;2.42;;
9860;SDS011;4969;52.304;4.968;2022-12-20T08:31:19;6.90;;;2.40;;
9860;SDS011;4969;52.304;4.968;2022-12-20T08:33:46;3.58;;;2.85;;
9860;SDS011;4969;52.304;4.968;2022-12-20T08:36:13;5.50;;;2.83;;
9860;SDS011;4969;52.304;4.968;2022-12-20T08:38:40;3.15;;;2.40;;
9860;SDS011;4969;52.304;4.968;2022-12-20T08:41:07;4.53;;;2.50;;
9860;SDS011;4969;52.304;4.968;2022-12-20T08:43:37;2.33;;;2.22;;
9860;SDS011;4969;52.304;4.968;2022-12-20T08:46:04;2.85;;;2.30;;
9860;SDS011;4969;52.304;4.968;2022-12-20T08:48:32;3.92;;;2.33;;
9860;SDS011;4969;52.304;4.968;2022-12-20T08:50:59;3.97;;;2.20;;
9860;SDS011;4969;52.304;4.968;2022-12-20T08:53:27;2.53;;;2.15;;
9860;SDS011;4969;52.304;4.968;2022-12-20T08:56:01;3.08;;;2.30;;
9860;SDS011;4969;52.304;4.968;2022-12-20T08:58:29;3.00;;;2.50;;
9860;SDS011;4969;52.304;4.968;2022-12-20T09:00:58;3.72;;;2.40;;
9860;SDS011;4969;52.304;4.968;2022-12-20T09:03:26;2.70;;;2.40;;
9860;SDS011;4969;52.304;4.968;2022-12-20T09:05:55;4.93;;;2.40;;
9860;SDS011;4969;52.304;4.968;2022-12-20T09:08:21;3.03;;;2.20;;
9860;SDS011;4969;52.304;4.968;2022-12-20T09:10:48;3.42;;;2.08;;
9860;SDS011;4969;52.304;4.968;2022-12-20T09:13:15;2.47;;;2.28;;
9860;SDS011;4969;52.304;4.968;2022-12-20T09:15:41;2.92;;;2.45;;
9860;SDS011;4969;52.304;4.968;2022-12-20T09:18:10;4.35;;;2.60;;
9860;SDS011;4969;52.304;4.968;2022-12-20T09:20:41;2.60;;;2.40;;
9860;SDS011;4969;52.304;4.968;2022-12-20T09:23:08;2.35;;;2.15;;
9860;SDS011;4969;52.304;4.968;2022-12-20T09:25:35;2.97;;;2.13;;
9860;SDS011;4969;52.304;4.968;2022-12-20T09:28:02;3.22;;;2.28;;
9860;SDS011;4969;52.304;4.968;2022-12-20T09:30:29;2.53;;;2.33;;
9860;SDS011;4969;52.304;4.968;2022-12-20T09:32:56;5.47;;;2.85;;
9860;SDS011;4969;52.304;4.968;2022-12-20T09:35:24;5.07;;;4.10;;
9860;SDS011;4969;52.304;4.968;2022-12-20T09:37:51;6.30;;;5.25;;
9860;SDS011;4969;52.304;4.968;2022-12-20T09:40:18;8.07;;;5.70;;
9860;SDS011;4969;52.304;4.968;2022-12-20T09:42:47;13.70;;;8.23;;
9860;SDS011;4969;52.304;4.968;2022-12-20T09:45:17;7.95;;;6.93;;
9860;SDS011;4969;52.304;4.968;2022-12-20T09:47:48;11.75;;;7.63;;
9860;SDS011;4969;52.304;4.968;2022-12-20T09:50:16;16.55;;;11.95;;
9860;SDS011;4969;52.304;4.968;2022-12-20T09:52:49;8.23;;;6.45;;
9860;SDS011;4969;52.304;4.968;2022-12-20T09:55:29;7.20;;;5.55;;
9860;SDS011;4969;52.304;4.968;2022-12-20T09:58:03;18.05;;;11.98;;
9860;SDS011;4969;52.304;4.968;2022-12-20T10:00:40;16.67;;;10.55;;
9860;SDS011;4969;52.304;4.968;2022-12-20T10:03:10;15.65;;;10.15;;
9860;SDS011;4969;52.304;4.968;2022-12-20T10:05:44;11.20;;;8.57;;
9860;SDS011;4969;52.304;4.968;2022-12-20T10:08:20;8.05;;;7.20;;
9860;SDS011;4969;52.304;4.968;2022-12-20T10:10:56;11.82;;;7.72;;
9860;SDS011;4969;52.304;4.968;2022-12-20T10:13:40;9.50;;;7.07;;
9860;SDS011;4969;52.304;4.968;2022-12-20T10:16:26;10.48;;;7.03;;
9860;SDS011;4969;52.304;4.968;2022-12-20T10:19:01;8.27;;;6.32;;
9860;SDS011;4969;52.304;4.968;2022-12-20T10:21:39;9.20;;;5.20;;
9860;SDS011;4969;52.304;4.968;2022-12-20T10:24:13;9.73;;;7.72;;
9860;SDS011;4969;52.304;4.968;2022-12-20T10:26:43;6.82;;;5.43;;
9860;SDS011;4969;52.304;4.968;2022-12-20T10:29:11;11.40;;;9.27;;
9860;SDS011;4969;52.304;4.968;2022-12-20T10:31:38;9.18;;;8.25;;
9860;SDS011;4969;52.304;4.968;2022-12-20T10:34:04;8.73;;;7.10;;
9860;SDS011;4969;52.304;4.968;2022-12-20T10:36:32;9.88;;;7.28;;
9860;SDS011;4969;52.304;4.968;2022-12-20T10:39:02;9.77;;;8.60;;
9860;SDS011;4969;52.304;4.968;2022-12-20T10:41:32;10.30;;;8.90;;
9860;SDS011;4969;52.304;4.968;2022-12-20T10:44:15;10.73;;;8.10;;
9860;SDS011;4969;52.304;4.968;2022-12-20T10:46:44;5.00;;;4.35;;
9860;SDS011;4969;52.304;4.968;2022-12-20T10:49:20;12.15;;;8.55;;
9860;SDS011;4969;52.304;4.968;2022-12-20T10:51:51;6.30;;;5.55;;
9860;SDS011;4969;52.304;4.968;2022-12-20T10:54:21;9.38;;;8.30;;
9860;SDS011;4969;52.304;4.968;2022-12-20T10:56:54;9.73;;;6.10;;
9860;SDS011;4969;52.304;4.968;2022-12-20T10:59:25;5.93;;;5.22;;
9860;SDS011;4969;52.304;4.968;2022-12-20T11:01:59;7.72;;;6.70;;
9860;SDS011;4969;52.304;4.968;2022-12-20T11:04:26;8.70;;;7.40;;
9860;SDS011;4969;52.304;4.968;2022-12-20T11:06:54;17.75;;;6.05;;
9860;SDS011;4969;52.304;4.968;2022-12-20T11:09:23;8.30;;;6.10;;
9860;SDS011;4969;52.304;4.968;2022-12-20T11:12:04;9.45;;;7.78;;
9860;SDS011;4969;52.304;4.968;2022-12-20T11:14:32;12.75;;;9.77;;
9860;SDS011;4969;52.304;4.968;2022-12-20T11:17:02;4.18;;;3.15;;
9860;SDS011;4969;52.304;4.968;2022-12-20T11:19:45;7.38;;;6.28;;
9860;SDS011;4969;52.304;4.968;2022-12-20T11:22:41;11.10;;;8.18;;
9860;SDS011;4969;52.304;4.968;2022-12-20T11:25:19;9.57;;;7.88;;
9860;SDS011;4969;52.304;4.968;2022-12-20T11:28:07;22.15;;;15.63;;
9860;SDS011;4969;52.304;4.968;2022-12-20T11:30:47;16.92;;;12.93;;
9860;SDS011;4969;52.304;4.968;2022-12-20T11:33:28;12.13;;;8.95;;
9860;SDS011;4969;52.304;4.968;2022-12-20T11:36:06;13.23;;;10.13;;
9860;SDS011;4969;52.304;4.968;2022-12-20T11:38:39;13.38;;;10.65;;
9860;SDS011;4969;52.304;4.968;2022-12-20T11:41:09;28.88;;;21.65;;
9860;SDS011;4969;52.304;4.968;2022-12-20T11:43:50;22.27;;;17.45;;
9860;SDS011;4969;52.304;4.968;2022-12-20T11:46:29;13.57;;;11.20;;
9860;SDS011;4969;52.304;4.968;2022-12-20T11:52:19;34.42;;;25.58;;
9860;SDS011;4969;52.304;4.968;2022-12-20T11:54:56;28.00;;;19.38;;
9860;SDS011;4969;52.304;4.968;2022-12-20T11:57:31;21.85;;;18.02;;
9860;SDS011;4969;52.304;4.968;2022-12-20T12:00:04;23.27;;;19.60;;
9860;SDS011;4969;52.304;4.968;2022-12-20T12:02:33;21.83;;;17.33;;
9860;SDS011;4969;52.304;4.968;2022-12-20T12:05:04;25.15;;;20.02;;
9860;SDS011;4969;52.304;4.968;2022-12-20T12:07:32;20.48;;;15.25;;
9860;SDS011;4969;52.304;4.968;2022-12-20T12:10:01;15.27;;;12.75;;
9860;SDS011;4969;52.304;4.968;2022-12-20T12:12:32;11.75;;;9.52;;
9860;SDS011;4969;52.304;4.968;2022-12-20T12:15:05;15.30;;;12.68;;
9860;SDS011;4969;52.304;4.968;2022-12-20T12:17:44;18.38;;;14.38;;
9860;SDS011;4969;52.304;4.968;2022-12-20T12:20:21;13.02;;;11.35;;
9860;SDS011;4969;52.304;4.968;2022-12-20T12:22:52;9.50;;;8.52;;
9860;SDS011;4969;52.304;4.968;2022-12-20T12:25:23;21.38;;;17.65;;
9860;SDS011;4969;52.304;4.968;2022-12-20T12:27:49;21.25;;;16.75;;
9860;SDS011;4969;52.304;4.968;2022-12-20T12:30:18;6.43;;;4.95;;
9860;SDS011;4969;52.304;4.968;2022-12-20T12:32:46;16.35;;;12.82;;
9860;SDS011;4969;52.304;4.968;2022-12-20T12:38:15;7.43;;;4.80;;
9860;SDS011;4969;52.304;4.968;2022-12-20T12:41:11;16.85;;;12.95;;
9860;SDS011;4969;52.304;4.968;2022-12-20T12:44:04;11.80;;;10.35;;
9860;SDS011;4969;52.304;4.968;2022-12-20T12:46:59;17.30;;;15.02;;
9860;SDS011;4969;52.304;4.968;2022-12-20T12:49:29;16.90;;;11.77;;
9860;SDS011;4969;52.304;4.968;2022-12-20T12:51:57;13.98;;;11.55;;
9860;SDS011;4969;52.304;4.968;2022-12-20T12:54:27;15.60;;;12.95;;
9860;SDS011;4969;52.304;4.968;2022-12-20T12:56:58;7.25;;;6.53;;
9860;SDS011;4969;52.304;4.968;2022-12-20T13:02:24;8.82;;;6.70;;
9860;SDS011;4969;52.304;4.968;2022-12-20T13:05:29;8.80;;;7.13;;
9860;SDS011;4969;52.304;4.968;2022-12-20T13:07:58;9.77;;;8.70;;
9860;SDS011;4969;52.304;4.968;2022-12-20T13:13:22;14.93;;;12.43;;
9860;SDS011;4969;52.304;4.968;2022-12-20T13:18:39;12.32;;;9.52;;
9860;SDS011;4969;52.304;4.968;2022-12-20T13:21:35;15.98;;;13.75;;
9860;SDS011;4969;52.304;4.968;2022-12-20T13:27:22;7.45;;;6.03;;
9860;SDS011;4969;52.304;4.968;2022-12-20T13:29:52;9.88;;;8.13;;
9860;SDS011;4969;52.304;4.968;2022-12-20T13:35:31;10.55;;;7.82;;
9860;SDS011;4969;52.304;4.968;2022-12-20T13:41:08;5.25;;;4.78;;
9860;SDS011;4969;52.304;4.968;2022-12-20T13:43:43;5.43;;;4.32;;
9860;SDS011;4969;52.304;4.968;2022-12-20T13:46:11;8.48;;;5.65;;
9860;SDS011;4969;52.304;4.968;2022-12-20T13:48:45;11.90;;;8.93;;
9860;SDS011;4969;52.304;4.968;2022-12-20T13:51:19;7.85;;;6.82;;
9860;SDS011;4969;52.304;4.968;2022-12-20T13:53:50;4.53;;;4.18;;
9860;SDS011;4969;52.304;4.968;2022-12-20T13:56:30;9.32;;;8.27;;
9860;SDS011;4969;52.304;4.968;2022-12-20T13:59:02;18.45;;;12.05;;
9860;SDS011;4969;52.304;4.968;2022-12-20T14:01:31;8.27;;;6.53;;
9860;SDS011;4969;52.304;4.968;2022-12-20T14:04:01;9.07;;;8.00;;
9860;SDS011;4969;52.304;4.968;2022-12-20T14:06:32;12.57;;;9.45;;
9860;SDS011;4969;52.304;4.968;2022-12-20T14:08:59;10.77;;;8.70;;
9860;SDS011;4969;52.304;4.968;2022-12-20T14:11:27;11.48;;;10.27;;
9860;SDS011;4969;52.304;4.968;2022-12-20T14:13:54;8.95;;;7.90;;
9860;SDS011;4969;52.304;4.968;2022-12-20T14:16:22;8.05;;;7.13;;
9860;SDS011;4969;52.304;4.968;2022-12-20T14:18:58;6.97;;;5.55;;
9860;SDS011;4969;52.304;4.968;2022-12-20T14:21:26;11.55;;;10.32;;
9860;SDS011;4969;52.304;4.968;2022-12-20T14:23:55;8.38;;;5.90;;
9860;SDS011;4969;52.304;4.968;2022-12-20T14:26:23;9.65;;;8.35;;
9860;SDS011;4969;52.304;4.968;2022-12-20T14:28:52;10.90;;;8.82;;
9860;SDS011;4969;52.304;4.968;2022-12-20T14:31:21;8.02;;;6.95;;
9860;SDS011;4969;52.304;4.968;2022-12-20T14:33:50;10.18;;;8.57;;
9860;SDS011;4969;52.304;4.968;2022-12-20T14:36:25;9.45;;;7.40;;
9860;SDS011;4969;52.304;4.968;2022-12-20T14:38:52;10.55;;;9.48;;
9860;SDS011;4969;52.304;4.968;2022-12-20T14:41:34;9.13;;;7.57;;
9860;SDS011;4969;52.304;4.968;2022-12-20T14:44:03;10.00;;;8.38;;
9860;SDS011;4969;52.304;4.968;2022-12-20T14:46:39;10.63;;;8.93;;
9860;SDS011;4969;52.304;4.968;2022-12-20T14:49:07;8.35;;;6.18;;
9860;SDS011;4969;52.304;4.968;2022-12-20T14:51:43;5.10;;;4.43;;
9860;SDS011;4969;52.304;4.968;2022-12-20T14:54:10;11.82;;;8.95;;
9860;SDS011;4969;52.304;4.968;2022-12-20T14:56:45;9.93;;;8.48;;
9860;SDS011;4969;52.304;4.968;2022-12-20T14:59:13;7.35;;;6.07;;
9860;SDS011;4969;52.304;4.968;2022-12-20T15:01:41;8.88;;;7.38;;
9860;SDS011;4969;52.304;4.968;2022-12-20T15:04:21;9.93;;;8.32;;
9860;SDS011;4969;52.304;4.968;2022-12-20T15:06:49;8.35;;;7.53;;
9860;SDS011;4969;52.304;4.968;2022-12-20T15:09:17;8.57;;;7.68;;
9860;SDS011;4969;52.304;4.968;2022-12-20T15:11:45;8.10;;;7.30;;
9860;SDS011;4969;52.304;4.968;2022-12-20T15:14:18;7.45;;;6.75;;
9860;SDS011;4969;52.304;4.968;2022-12-20T15:16:48;6.95;;;6.30;;
9860;SDS011;4969;52.304;4.968;2022-12-20T15:19:16;9.55;;;8.50;;
9860;SDS011;4969;52.304;4.968;2022-12-20T15:21:43;7.18;;;6.47;;
9860;SDS011;4969;52.304;4.968;2022-12-20T15:24:11;9.60;;;8.57;;
9860;SDS011;4969;52.304;4.968;2022-12-20T15:26:39;6.68;;;6.03;;
9860;SDS011;4969;52.304;4.968;2022-12-20T15:29:09;9.00;;;8.10;;
9860;SDS011;4969;52.304;4.968;2022-12-20T15:31:40;8.52;;;7.40;;
9860;SDS011;4969;52.304;4.968;2022-12-20T15:34:09;8.65;;;7.75;;
9860;SDS011;4969;52.304;4.968;2022-12-20T15:36:39;8.75;;;7.90;;
9860;SDS011;4969;52.304;4.968;2022-12-20T15:39:06;8.30;;;7.50;;
9860;SDS011;4969;52.304;4.968;2022-12-20T15:41:34;8.18;;;7.47;;
9860;SDS011;4969;52.304;4.968;2022-12-20T15:44:02;7.35;;;6.65;;